createdAt,value
2019-01-29T00:00:36.256Z,7.63
2019-01-29T00:03:06.447Z,7.60
2019-01-29T00:05:34.974Z,7.50
2019-01-29T00:08:03.564Z,6.83
2019-01-29T00:10:32.065Z,6.90
2019-01-29T00:13:00.588Z,7.17
2019-01-29T00:15:29.090Z,6.93
2019-01-29T00:17:57.552Z,6.23
2019-01-29T00:20:25.987Z,6.50
2019-01-29T00:22:54.414Z,7.23
2019-01-29T00:25:22.982Z,6.37
2019-01-29T00:27:51.397Z,6.33
2019-01-29T00:30:19.898Z,5.53
2019-01-29T00:32:48.332Z,5.77
2019-01-29T00:35:16.814Z,5.57
2019-01-29T00:37:45.291Z,5.37
2019-01-29T00:40:16.053Z,5.73
2019-01-29T00:42:44.566Z,5.57
2019-01-29T00:45:15.482Z,5.10
2019-01-29T00:47:43.999Z,4.77
2019-01-29T00:50:14.473Z,5.87
2019-01-29T00:52:43.021Z,5.00
2019-01-29T00:55:14.422Z,5.10
2019-01-29T00:57:43.214Z,5.10
2019-01-29T01:00:23.389Z,5.43
2019-01-29T01:02:51.916Z,5.27
2019-01-29T01:05:21.994Z,5.00
2019-01-29T01:07:50.497Z,5.60
2019-01-29T01:10:21.211Z,5.13
2019-01-29T01:12:50.275Z,4.97
2019-01-29T01:15:18.940Z,5.03
2019-01-29T01:17:47.368Z,5.67
2019-01-29T01:20:17.842Z,4.93
2019-01-29T01:22:51.068Z,5.40
2019-01-29T01:25:17.644Z,5.47
2019-01-29T01:27:46.039Z,4.50
2019-01-29T01:30:17.184Z,6.53
2019-01-29T01:32:46.151Z,6.43
2019-01-29T01:35:15.481Z,5.43
2019-01-29T01:37:43.941Z,5.77
2019-01-29T01:40:15.603Z,5.93
2019-01-29T01:42:44.050Z,5.73
2019-01-29T01:45:12.793Z,7.00
2019-01-29T01:47:41.233Z,6.70
2019-01-29T01:50:14.796Z,7.37
2019-01-29T01:52:43.327Z,6.20
2019-01-29T01:55:17.205Z,7.07
2019-01-29T01:57:45.619Z,6.17
2019-01-29T02:00:16.993Z,7.23
2019-01-29T02:02:45.573Z,8.10
2019-01-29T02:05:14.106Z,6.83
2019-01-29T02:07:42.595Z,7.40
2019-01-29T02:10:14.115Z,7.40
2019-01-29T02:12:42.523Z,8.20
2019-01-29T02:15:12.010Z,6.90
2019-01-29T02:17:40.463Z,7.10
2019-01-29T02:20:11.770Z,7.00
2019-01-29T02:22:40.290Z,7.30
2019-01-29T02:25:08.857Z,7.67
2019-01-29T02:27:37.273Z,8.47
2019-01-29T02:30:11.481Z,7.40
2019-01-29T02:32:39.975Z,8.57
2019-01-29T02:35:08.555Z,7.47
2019-01-29T02:37:36.990Z,8.40
2019-01-29T02:40:26.510Z,9.50
2019-01-29T02:42:54.925Z,7.97
2019-01-29T02:45:24.064Z,8.70
2019-01-29T02:47:52.494Z,9.10
2019-01-29T02:50:21.126Z,9.37
2019-01-29T02:52:49.540Z,10.07
2019-01-29T02:55:18.038Z,9.87
2019-01-29T02:57:46.503Z,11.23
2019-01-29T03:00:17.868Z,10.43
2019-01-29T03:02:46.294Z,11.47
2019-01-29T03:05:16.378Z,11.57
2019-01-29T03:07:45.046Z,11.40
2019-01-29T03:10:19.667Z,12.63
2019-01-29T03:12:49.418Z,12.47
2019-01-29T03:15:20.691Z,13.13
2019-01-29T03:17:49.214Z,13.27
2019-01-29T03:20:18.070Z,13.17
2019-01-29T03:22:46.502Z,12.83
2019-01-29T03:25:14.998Z,12.27
2019-01-29T03:27:43.425Z,12.40
2019-01-29T03:30:22.333Z,13.17
2019-01-29T03:32:50.743Z,12.87
2019-01-29T03:35:19.318Z,12.90
2019-01-29T03:37:47.841Z,13.27
2019-01-29T03:40:19.364Z,13.33
2019-01-29T03:42:47.808Z,13.87
2019-01-29T03:45:17.057Z,12.57
2019-01-29T03:47:45.635Z,11.67
2019-01-29T03:50:19.882Z,13.13
2019-01-29T03:52:48.361Z,12.70
2019-01-29T03:55:16.907Z,12.93
2019-01-29T03:57:45.375Z,13.07
2019-01-29T04:00:16.842Z,13.43
2019-01-29T04:02:45.460Z,13.13
2019-01-29T04:05:14.026Z,12.97
2019-01-29T04:07:42.439Z,13.27
2019-01-29T04:10:16.297Z,13.23
2019-01-29T04:12:46.185Z,15.20
2019-01-29T04:15:17.177Z,12.83
2019-01-29T04:17:46.371Z,13.77
2019-01-29T04:20:21.155Z,13.10
2019-01-29T04:22:49.604Z,12.77
2019-01-29T04:25:18.186Z,14.53
2019-01-29T04:27:46.710Z,13.27
2019-01-29T04:30:17.643Z,12.47
2019-01-29T04:32:46.128Z,12.77
2019-01-29T04:35:14.678Z,13.90
2019-01-29T04:37:43.136Z,11.03
2019-01-29T04:40:16.885Z,10.97
2019-01-29T04:42:45.431Z,11.73
2019-01-29T04:45:15.785Z,11.43
2019-01-29T04:47:44.290Z,12.47
2019-01-29T04:50:20.841Z,11.73
2019-01-29T04:52:49.314Z,11.40
2019-01-29T04:55:19.343Z,12.47
2019-01-29T04:57:47.892Z,11.67
2019-01-29T05:00:21.846Z,11.07
2019-01-29T05:02:50.427Z,11.73
2019-01-29T05:05:20.100Z,10.63
2019-01-29T05:07:48.596Z,10.13
2019-01-29T05:10:19.323Z,11.73
2019-01-29T05:12:47.718Z,11.33
2019-01-29T05:15:18.560Z,11.10
2019-01-29T05:17:46.944Z,10.80
2019-01-29T05:20:17.741Z,10.80
2019-01-29T05:22:46.271Z,10.40
2019-01-29T05:25:15.364Z,11.17
2019-01-29T05:27:43.819Z,10.63
2019-01-29T05:30:15.186Z,9.93
2019-01-29T05:32:43.605Z,11.43
2019-01-29T05:35:12.222Z,10.17
2019-01-29T05:37:40.708Z,10.67
2019-01-29T05:40:12.668Z,10.63
2019-01-29T05:42:41.177Z,11.23
2019-01-29T05:45:15.413Z,11.30
2019-01-29T05:47:43.843Z,10.50
2019-01-29T05:50:14.823Z,12.73
2019-01-29T05:52:43.387Z,11.80
2019-01-29T05:55:13.759Z,12.00
2019-01-29T05:57:42.360Z,11.97
2019-01-29T06:00:14.050Z,11.63
2019-01-29T06:02:42.472Z,12.77
2019-01-29T06:05:11.860Z,12.90
2019-01-29T06:07:40.313Z,12.90
2019-01-29T06:10:12.069Z,12.70
2019-01-29T06:12:40.486Z,12.37
2019-01-29T06:15:11.941Z,13.23
2019-01-29T06:17:40.357Z,12.27
2019-01-29T06:20:11.825Z,13.30
2019-01-29T06:22:40.270Z,12.73
2019-01-29T06:25:08.850Z,12.97
2019-01-29T06:27:37.307Z,13.93
2019-01-29T06:30:11.489Z,14.97
2019-01-29T06:32:39.890Z,12.63
2019-01-29T06:35:13.596Z,13.70
2019-01-29T06:37:42.419Z,13.13
2019-01-29T06:40:14.081Z,13.07
2019-01-29T06:42:42.574Z,12.67
2019-01-29T06:45:14.272Z,12.97
2019-01-29T06:47:42.828Z,12.90
2019-01-29T06:50:14.307Z,13.47
2019-01-29T06:52:42.757Z,12.40
2019-01-29T06:55:14.360Z,12.43
2019-01-29T06:57:42.787Z,12.63
2019-01-29T07:00:14.358Z,13.93
2019-01-29T07:02:43.639Z,12.73
2019-01-29T07:05:12.590Z,12.50
2019-01-29T07:07:41.034Z,13.97
2019-01-29T07:10:12.920Z,12.90
2019-01-29T07:12:41.347Z,14.27
2019-01-29T07:15:14.923Z,15.27
2019-01-29T07:17:45.231Z,12.93
2019-01-29T07:20:14.142Z,12.77
2019-01-29T07:22:42.606Z,12.33
2019-01-29T07:25:12.468Z,11.53
2019-01-29T07:27:40.951Z,11.63
2019-01-29T07:30:15.221Z,12.20
2019-01-29T07:32:43.633Z,12.13
2019-01-29T07:35:12.208Z,12.47
2019-01-29T07:37:40.666Z,11.80
2019-01-29T07:40:10.799Z,11.00
2019-01-29T07:42:39.333Z,11.00
2019-01-29T07:45:10.973Z,10.60
2019-01-29T07:47:39.445Z,10.67
2019-01-29T07:50:10.130Z,10.50
2019-01-29T07:52:38.704Z,10.93
2019-01-29T07:55:10.573Z,10.33
2019-01-29T07:57:39.017Z,11.17
2019-01-29T08:00:15.670Z,10.77
2019-01-29T08:02:44.115Z,9.63
2019-01-29T08:05:13.167Z,9.77
2019-01-29T08:07:41.648Z,10.03
2019-01-29T08:10:13.484Z,9.43
2019-01-29T08:12:41.914Z,9.83
2019-01-29T08:15:13.357Z,9.93
2019-01-29T08:17:41.872Z,8.53
2019-01-29T08:20:13.218Z,8.43
2019-01-29T08:22:41.762Z,8.03
2019-01-29T08:25:11.412Z,7.47
2019-01-29T08:27:39.967Z,6.80
2019-01-29T08:30:16.559Z,7.37
2019-01-29T08:32:44.984Z,6.93
2019-01-29T08:35:17.853Z,6.20
2019-01-29T08:37:46.402Z,6.53
2019-01-29T08:40:16.455Z,5.80
2019-01-29T08:42:45.018Z,5.80
2019-01-29T08:45:15.987Z,6.10
2019-01-29T08:47:44.468Z,7.00
2019-01-29T08:50:15.956Z,6.50
2019-01-29T08:52:44.375Z,6.57
2019-01-29T08:55:12.887Z,6.83
2019-01-29T08:57:41.344Z,6.77
2019-01-29T09:00:15.166Z,6.93
2019-01-29T09:02:43.731Z,6.27
2019-01-29T09:05:12.588Z,6.33
2019-01-29T09:07:42.670Z,6.10
2019-01-29T09:10:17.314Z,5.67
2019-01-29T09:12:45.794Z,6.07
2019-01-29T09:15:19.274Z,5.00
2019-01-29T09:17:47.777Z,4.43
2019-01-29T09:20:18.456Z,4.57
2019-01-29T09:22:46.945Z,4.60
2019-01-29T09:25:21.021Z,4.83
2019-01-29T09:27:46.141Z,4.40
2019-01-29T09:30:17.366Z,4.80
2019-01-29T09:32:46.077Z,4.23
2019-01-29T09:35:14.841Z,4.60
2019-01-29T09:37:43.250Z,4.07
2019-01-29T09:40:23.480Z,4.40
2019-01-29T09:42:54.789Z,4.37
2019-01-29T09:45:24.053Z,5.00
2019-01-29T09:47:52.553Z,5.13
2019-01-29T09:50:22.995Z,4.87
2019-01-29T09:52:52.674Z,4.43
2019-01-29T09:55:28.864Z,4.90
2019-01-29T09:57:53.037Z,4.47
2019-01-29T10:00:33.462Z,4.53
2019-01-29T10:03:01.944Z,3.83
2019-01-29T10:05:30.388Z,3.90
2019-01-29T10:07:59.477Z,4.27
2019-01-29T10:10:27.937Z,5.30
2019-01-29T10:12:56.566Z,3.60
2019-01-29T10:15:27.767Z,4.50
2019-01-29T10:17:56.327Z,4.80
2019-01-29T10:20:24.987Z,4.30
2019-01-29T10:22:53.348Z,4.47
2019-01-29T10:25:21.870Z,4.87
2019-01-29T10:27:50.290Z,4.90
2019-01-29T10:30:21.659Z,5.63
2019-01-29T10:32:50.229Z,5.33
2019-01-29T10:35:24.290Z,5.33
2019-01-29T10:37:52.792Z,5.73
2019-01-29T10:40:26.603Z,4.80
2019-01-29T10:42:56.763Z,5.13
2019-01-29T10:45:27.922Z,5.13
2019-01-29T10:47:56.344Z,6.60
2019-01-29T10:50:29.921Z,5.00
2019-01-29T10:52:58.896Z,5.20
2019-01-29T10:55:27.454Z,5.30
2019-01-29T10:57:55.963Z,5.67
2019-01-29T11:00:37.151Z,5.30
2019-01-29T11:03:06.119Z,5.07
2019-01-29T11:05:34.747Z,6.13
2019-01-29T11:08:03.515Z,6.43
2019-01-29T11:10:31.987Z,6.10
2019-01-29T11:13:00.521Z,6.17
2019-01-29T11:15:37.036Z,6.03
2019-01-29T11:18:08.652Z,6.13
2019-01-29T11:20:37.221Z,5.83
2019-01-29T11:23:05.835Z,6.40
2019-01-29T11:25:34.424Z,5.90
2019-01-29T11:28:02.900Z,5.73
2019-01-29T11:30:33.137Z,6.37
2019-01-29T11:33:01.644Z,5.60
2019-01-29T11:35:30.205Z,5.77
2019-01-29T11:37:58.786Z,6.73
2019-01-29T11:40:32.390Z,6.13
2019-01-29T11:43:01.158Z,6.20
2019-01-29T11:45:38.560Z,5.80
2019-01-29T11:48:07.135Z,5.47
2019-01-29T11:50:35.563Z,6.03
2019-01-29T11:53:04.586Z,5.30
2019-01-29T11:55:33.094Z,5.70
2019-01-29T11:58:01.501Z,5.50
2019-01-29T12:00:43.355Z,5.43
2019-01-29T12:03:11.772Z,5.00
2019-01-29T12:05:40.265Z,4.73
2019-01-29T12:08:08.795Z,5.13
2019-01-29T12:10:37.277Z,4.97
2019-01-29T12:13:06.664Z,5.17
2019-01-29T12:15:35.164Z,5.10
2019-01-29T12:18:04.363Z,5.30
2019-01-29T12:20:32.782Z,5.40
2019-01-29T12:23:01.292Z,5.57
2019-01-29T12:25:29.722Z,5.87
2019-01-29T12:27:58.191Z,6.70
2019-01-29T12:30:28.653Z,7.10
2019-01-29T12:32:58.648Z,7.93
2019-01-29T12:35:27.086Z,8.20
2019-01-29T12:37:55.563Z,7.80
2019-01-29T12:40:24.090Z,8.00
2019-01-29T12:42:52.501Z,9.47
2019-01-29T12:45:21.373Z,9.27
2019-01-29T12:47:50.178Z,10.13
2019-01-29T12:50:27.032Z,12.03
2019-01-29T12:53:08.843Z,11.23
2019-01-29T12:55:37.789Z,10.43
2019-01-29T12:58:07.265Z,11.80
2019-01-29T13:00:37.799Z,10.83
2019-01-29T13:03:06.382Z,12.27
2019-01-29T13:05:34.904Z,11.87
2019-01-29T13:08:03.513Z,12.23
2019-01-29T13:10:31.970Z,12.40
2019-01-29T13:13:00.450Z,12.87
2019-01-29T13:15:35.774Z,13.47
2019-01-29T13:18:05.059Z,12.93
2019-01-29T13:20:33.515Z,13.40
2019-01-29T13:23:02.017Z,12.30
2019-01-29T13:25:30.586Z,12.73
2019-01-29T13:27:59.059Z,12.90
2019-01-29T13:30:35.887Z,13.80
2019-01-29T13:33:07.083Z,12.97
2019-01-29T13:35:36.949Z,12.23
2019-01-29T13:38:06.814Z,12.40
2019-01-29T13:40:35.758Z,12.87
2019-01-29T13:43:04.846Z,11.87
2019-01-29T13:45:33.351Z,12.63
2019-01-29T13:48:01.809Z,12.20
2019-01-29T13:50:39.529Z,12.27
2019-01-29T13:53:08.052Z,12.53
2019-01-29T13:55:36.693Z,11.90
2019-01-29T13:58:07.362Z,12.73
2019-01-29T14:00:38.327Z,11.03
2019-01-29T14:03:09.250Z,11.60
2019-01-29T14:05:37.839Z,11.27
2019-01-29T14:08:08.005Z,11.53
2019-01-29T14:10:36.537Z,12.87
2019-01-29T14:13:05.078Z,12.00
2019-01-29T14:15:41.033Z,11.90
2019-01-29T14:18:10.719Z,11.43
2019-01-29T14:20:39.134Z,12.10
2019-01-29T14:23:09.353Z,12.17
2019-01-29T14:25:38.188Z,11.27
2019-01-29T14:28:06.793Z,10.57
2019-01-29T14:30:35.318Z,10.13
2019-01-29T14:33:04.350Z,11.07
2019-01-29T14:35:32.785Z,11.27
2019-01-29T14:38:07.190Z,10.17
2019-01-29T14:40:35.701Z,9.27
2019-01-29T14:43:05.602Z,11.33
2019-01-29T14:45:34.484Z,9.87
2019-01-29T14:48:02.970Z,10.87
2019-01-29T14:50:32.045Z,9.67
2019-01-29T14:53:00.547Z,9.13
2019-01-29T14:55:29.029Z,9.20
2019-01-29T14:57:57.445Z,8.67
2019-01-29T15:00:34.141Z,8.37
2019-01-29T15:03:02.577Z,8.00
2019-01-29T15:05:31.002Z,7.93
2019-01-29T15:07:59.455Z,9.10
2019-01-29T15:10:34.165Z,7.87
2019-01-29T15:13:02.655Z,8.20
2019-01-29T15:15:35.769Z,7.97
2019-01-29T15:18:06.996Z,7.93
2019-01-29T15:20:35.435Z,8.63
2019-01-29T15:23:04.718Z,7.70
2019-01-29T15:25:33.165Z,8.37
2019-01-29T15:28:02.354Z,8.00
2019-01-29T15:30:33.785Z,6.80
2019-01-29T15:33:02.244Z,7.07
2019-01-29T15:35:30.662Z,8.80
2019-01-29T15:37:59.140Z,7.70
2019-01-29T15:40:27.718Z,6.33
2019-01-29T15:42:56.277Z,7.43
2019-01-29T15:45:31.243Z,7.43
2019-01-29T15:47:59.781Z,8.50
2019-01-29T15:50:33.017Z,8.23
2019-01-29T15:53:01.586Z,7.77
2019-01-29T15:55:30.233Z,7.73
2019-01-29T15:57:58.709Z,7.87
2019-01-29T16:00:35.142Z,7.57
2019-01-29T16:03:04.113Z,7.30
2019-01-29T16:05:35.156Z,7.83
2019-01-29T16:08:05.433Z,9.10
2019-01-29T16:10:40.061Z,8.03
2019-01-29T16:13:08.703Z,8.10
2019-01-29T16:15:37.724Z,7.20
2019-01-29T16:18:07.336Z,8.40
2019-01-29T16:20:35.767Z,7.47
2019-01-29T16:23:04.635Z,7.40
2019-01-29T16:25:34.921Z,6.90
2019-01-29T16:28:03.373Z,6.77
2019-01-29T16:30:36.831Z,7.23
2019-01-29T16:33:06.019Z,6.93
2019-01-29T16:35:40.076Z,6.33
2019-01-29T16:38:09.931Z,6.57
2019-01-29T16:40:40.830Z,6.87
2019-01-29T16:43:09.336Z,7.20
2019-01-29T16:45:38.815Z,8.07
2019-01-29T16:48:09.090Z,7.27
2019-01-29T16:50:37.663Z,6.83
2019-01-29T16:53:08.276Z,7.70
2019-01-29T16:55:36.893Z,7.13
2019-01-29T16:58:06.886Z,7.50
2019-01-29T17:00:38.027Z,6.57
2019-01-29T17:03:06.574Z,7.07
2019-01-29T17:05:35.035Z,6.73
2019-01-29T17:08:03.625Z,6.03
2019-01-29T17:10:33.680Z,6.90
2019-01-29T17:13:02.207Z,7.33
2019-01-29T17:15:35.671Z,6.60
2019-01-29T17:18:05.516Z,7.03
2019-01-29T17:20:37.009Z,6.73
2019-01-29T17:23:07.253Z,7.00
2019-01-29T17:25:36.264Z,8.30
2019-01-29T17:28:05.106Z,7.63
2019-01-29T17:30:36.659Z,6.70
2019-01-29T17:33:06.327Z,6.30
2019-01-29T17:35:35.893Z,6.73
2019-01-29T17:38:04.559Z,6.87
2019-01-29T17:40:32.999Z,6.20
2019-01-29T17:43:01.480Z,5.47
2019-01-29T17:45:35.938Z,6.40
2019-01-29T17:48:04.940Z,6.23
2019-01-29T17:50:36.300Z,6.80
2019-01-29T17:53:05.195Z,6.60
2019-01-29T17:55:35.250Z,6.60
2019-01-29T17:58:04.823Z,6.07
2019-01-29T18:00:35.259Z,5.80
2019-01-29T18:03:05.288Z,6.30
2019-01-29T18:05:34.932Z,6.67
2019-01-29T18:08:03.869Z,7.43
2019-01-29T18:10:32.277Z,7.07
2019-01-29T18:13:00.715Z,7.93
2019-01-29T18:15:30.920Z,6.13
2019-01-29T18:17:59.456Z,6.93
2019-01-29T18:20:27.889Z,6.07
2019-01-29T18:22:56.319Z,6.30
2019-01-29T18:25:24.892Z,7.47
2019-01-29T18:28:00.891Z,7.77
2019-01-29T18:30:29.418Z,7.77
2019-01-29T18:32:57.852Z,6.33
2019-01-29T18:35:26.347Z,5.70
2019-01-29T18:38:00.889Z,6.47
2019-01-29T18:40:41.372Z,6.57
2019-01-29T18:43:09.775Z,5.70
2019-01-29T18:45:38.211Z,5.93
2019-01-29T18:48:06.720Z,6.00
2019-01-29T18:50:35.148Z,5.90
2019-01-29T18:53:03.645Z,6.00
2019-01-29T18:55:32.097Z,5.90
2019-01-29T18:58:00.514Z,6.03
2019-01-29T19:00:29.032Z,6.10
2019-01-29T19:02:57.484Z,6.60
2019-01-29T19:05:27.262Z,6.13
2019-01-29T19:07:55.765Z,5.87
2019-01-29T19:10:24.433Z,6.43
2019-01-29T19:12:53.361Z,6.67
2019-01-29T19:15:23.953Z,7.00
2019-01-29T19:17:52.432Z,7.63
2019-01-29T19:20:26.131Z,7.67
2019-01-29T19:22:54.308Z,7.90
2019-01-29T19:25:22.749Z,7.30
2019-01-29T19:27:51.321Z,7.13
2019-01-29T19:30:25.392Z,7.73
2019-01-29T19:32:53.856Z,7.63
2019-01-29T19:35:22.484Z,7.23
2019-01-29T19:37:50.983Z,6.63
2019-01-29T19:40:19.977Z,6.90
2019-01-29T19:42:48.381Z,8.07
2019-01-29T19:45:25.489Z,7.27
2019-01-29T19:47:54.646Z,7.80
2019-01-29T19:50:25.515Z,7.37
2019-01-29T19:52:54.409Z,7.93
2019-01-29T19:55:23.799Z,7.53
2019-01-29T19:57:52.260Z,7.43
2019-01-29T20:00:26.118Z,7.00
2019-01-29T20:02:56.965Z,7.20
2019-01-29T20:05:24.826Z,7.37
2019-01-29T20:07:53.257Z,8.50
2019-01-29T20:10:22.648Z,7.63
2019-01-29T20:12:52.215Z,7.70
2019-01-29T20:15:25.313Z,7.73
2019-01-29T20:17:56.099Z,7.50
2019-01-29T20:20:30.444Z,8.63
2019-01-29T20:23:07.703Z,8.30
2019-01-29T20:25:29.677Z,8.40
2019-01-29T20:27:58.373Z,7.77
2019-01-29T20:30:29.960Z,7.50
2019-01-29T20:32:58.470Z,8.37
2019-01-29T20:35:26.983Z,8.63
2019-01-29T20:37:55.801Z,8.00
2019-01-29T20:40:25.155Z,7.63
2019-01-29T20:42:53.904Z,8.53
2019-01-29T20:45:22.449Z,8.47
2019-01-29T20:47:52.702Z,8.53
2019-01-29T20:50:24.341Z,7.90
2019-01-29T20:52:52.995Z,8.07
2019-01-29T20:55:21.454Z,8.07
2019-01-29T20:57:49.962Z,7.53
2019-01-29T21:00:24.908Z,7.63
2019-01-29T21:02:54.256Z,8.03
2019-01-29T21:05:22.730Z,7.43
2019-01-29T21:07:51.226Z,7.67
2019-01-29T21:10:21.909Z,7.77
2019-01-29T21:12:50.365Z,8.43
2019-01-29T21:15:24.132Z,7.50
2019-01-29T21:17:52.729Z,7.00
2019-01-29T21:20:24.204Z,7.33
2019-01-29T21:22:52.704Z,8.03
2019-01-29T21:25:21.833Z,8.23
2019-01-29T21:27:50.274Z,8.43
2019-01-29T21:30:21.689Z,8.23
2019-01-29T21:32:50.166Z,8.37
2019-01-29T21:35:18.750Z,7.77
2019-01-29T21:37:47.170Z,7.57
2019-01-29T21:40:17.141Z,8.37
2019-01-29T21:42:45.568Z,8.30
2019-01-29T21:45:19.344Z,9.30
2019-01-29T21:47:48.842Z,8.17
2019-01-29T21:50:19.947Z,8.97
2019-01-29T21:52:48.576Z,9.07
2019-01-29T21:55:17.652Z,8.50
2019-01-29T21:57:46.405Z,8.57
2019-01-29T22:00:33.107Z,8.33
2019-01-29T22:03:01.849Z,8.03
2019-01-29T22:05:30.398Z,8.60
2019-01-29T22:07:58.907Z,8.53
2019-01-29T22:10:27.972Z,8.30
2019-01-29T22:12:56.515Z,8.00
2019-01-29T22:15:26.215Z,8.77
2019-01-29T22:17:54.752Z,7.67
2019-01-29T22:20:24.680Z,8.50
2019-01-29T22:22:53.214Z,8.37
2019-01-29T22:25:25.773Z,8.90
2019-01-29T22:27:54.181Z,8.63
2019-01-29T22:30:34.607Z,8.13
2019-01-29T22:33:03.374Z,8.53
2019-01-29T22:35:31.882Z,9.20
2019-01-29T22:38:00.464Z,9.03
2019-01-29T22:40:30.804Z,8.80
2019-01-29T22:43:01.306Z,9.07
2019-01-29T22:45:30.150Z,8.73
2019-01-29T22:47:58.712Z,8.60
2019-01-29T22:50:32.593Z,10.00
2019-01-29T22:53:01.102Z,10.10
2019-01-29T22:55:29.801Z,9.23
2019-01-29T22:57:58.341Z,9.27
2019-01-29T23:00:34.405Z,9.17
2019-01-29T23:03:03.183Z,9.30
2019-01-29T23:05:34.934Z,10.00
2019-01-29T23:08:03.401Z,10.60
2019-01-29T23:10:31.798Z,10.70
2019-01-29T23:13:00.240Z,10.80
2019-01-29T23:15:28.783Z,10.00
2019-01-29T23:17:57.199Z,9.70
2019-01-29T23:20:25.777Z,10.60
2019-01-29T23:22:54.238Z,10.17
2019-01-29T23:25:22.758Z,9.70
2019-01-29T23:27:51.176Z,11.07
2019-01-29T23:30:21.467Z,9.87
2019-01-29T23:32:49.893Z,11.53
2019-01-29T23:35:18.350Z,9.57
2019-01-29T23:37:46.793Z,9.47
2019-01-29T23:40:19.298Z,10.13
2019-01-29T23:42:47.747Z,9.90
2019-01-29T23:45:16.899Z,9.77
2019-01-29T23:47:45.334Z,9.83
2019-01-29T23:50:16.166Z,10.13
2019-01-29T23:52:44.606Z,9.80
2019-01-29T23:55:13.213Z,10.17
2019-01-29T23:57:41.639Z,9.50
